Time;durP1;ratioP1;P1;durP2;ratioP2;P2;SDS_P1;SDS_P2;PMS_P1;PMS_P2;Temp;Humidity;BMP_temperature;BMP_pressure;BME280_temperature;BME280_humidity;BME280_pressure;Samples;Min_cycle;Max_cycle;Signal;HPM_P1;HPM_P2
2023/04/11 00:00:37;;;;;;;3.33;2.17;;;10.90;70.20;;;;;;5013426;28;20209;-64
2023/04/11 00:03:05;;;;;;;5.22;2.30;;;10.90;67.80;;;;;;5055970;28;20208;-65
2023/04/11 00:05:33;;;;;;;4.32;2.40;;;10.90;62.80;;;;;;5062616;28;20713;-65
2023/04/11 00:08:00;;;;;;;2.45;1.98;;;10.90;59.40;;;;;;5065466;28;20220;-65
2023/04/11 00:10:27;;;;;;;4.93;2.25;;;10.90;58.20;;;;;;5064856;28;20581;-65
2023/04/11 00:12:55;;;;;;;4.15;2.65;;;11.00;58.50;;;;;;5054609;28;20196;-65
2023/04/11 00:15:23;;;;;;;3.45;2.47;;;11.00;58.70;;;;;;5060888;28;20226;-65
2023/04/11 00:17:50;;;;;;;3.05;2.25;;;11.00;57.20;;;;;;5035815;28;20208;-64
2023/04/11 00:20:17;;;;;;;7.35;3.08;;;10.90;56.40;;;;;;5069421;28;20200;-64
2023/04/11 00:22:45;;;;;;;3.05;2.20;;;11.00;54.10;;;;;;5063497;28;20318;-65
2023/04/11 00:25:11;;;;;;;3.63;1.95;;;11.00;54.10;;;;;;5065324;28;20196;-65
2023/04/11 00:27:38;;;;;;;2.90;1.95;;;10.90;55.90;;;;;;5047808;28;20203;-65
2023/04/11 00:30:07;;;;;;;2.78;2.10;;;10.90;53.90;;;;;;5064406;28;20287;-64
2023/04/11 00:32:34;;;;;;;5.20;2.03;;;10.90;53.50;;;;;;5031743;28;20227;-65
2023/04/11 00:35:01;;;;;;;2.97;1.85;;;10.80;52.40;;;;;;5062618;28;20672;-65
2023/04/11 00:37:28;;;;;;;4.43;2.58;;;10.90;48.60;;;;;;5068414;28;20584;-64
2023/04/11 00:39:56;;;;;;;2.53;2.08;;;10.90;43.50;;;;;;5068998;28;20368;-64
2023/04/11 00:42:23;;;;;;;3.67;2.28;;;10.90;42.20;;;;;;5062357;28;20211;-65
2023/04/11 00:44:50;;;;;;;3.50;2.45;;;10.80;40.90;;;;;;5052387;28;20196;-65
2023/04/11 00:47:17;;;;;;;2.80;2.00;;;10.80;37.70;;;;;;5065299;28;20565;-64
2023/04/11 00:49:44;;;;;;;3.13;2.25;;;10.70;40.00;;;;;;5027764;28;20204;-64
2023/04/11 00:52:12;;;;;;;3.50;2.13;;;10.80;36.30;;;;;;5066046;28;20727;-64
2023/04/11 00:54:39;;;;;;;3.13;2.20;;;10.80;34.10;;;;;;5061709;28;20813;-65
2023/04/11 00:57:08;;;;;;;4.70;2.60;;;10.70;36.90;;;;;;5062929;28;20752;-64
2023/04/11 00:59:35;;;;;;;3.85;2.17;;;10.60;39.00;;;;;;5048439;28;20196;-65
2023/04/11 01:02:02;;;;;;;4.22;2.30;;;10.60;42.00;;;;;;5063647;28;20584;-65
2023/04/11 01:04:29;;;;;;;2.38;1.95;;;10.60;40.00;;;;;;5029400;28;20216;-65
2023/04/11 01:07:00;;;;;;;5.65;2.22;;;10.50;43.70;;;;;;5054042;28;20775;-64
2023/04/11 01:09:29;;;;;;;5.43;2.35;;;10.50;48.00;;;;;;5047120;28;20290;-65
2023/04/11 01:11:56;;;;;;;3.92;2.55;;;10.40;51.40;;;;;;5064726;28;20719;-64
2023/04/11 01:14:26;;;;;;;3.03;2.10;;;10.40;56.60;;;;;;5043935;28;20202;-65
2023/04/11 01:16:55;;;;;;;3.97;2.08;;;10.40;58.20;;;;;;5056447;28;20203;-64
2023/04/11 01:19:24;;;;;;;5.32;2.45;;;10.50;56.10;;;;;;5021777;28;21071;-64
2023/04/11 01:21:53;;;;;;;1.83;1.50;;;10.40;42.40;;;;;;5041967;28;20255;-65
2023/04/11 01:24:21;;;;;;;2.33;1.35;;;9.90;28.90;;;;;;5058535;28;20200;-65
2023/04/11 01:26:48;;;;;;;1.77;1.10;;;9.50;44.90;;;;;;5065771;28;20518;-65
2023/04/11 01:29:15;;;;;;;1.98;0.88;;;9.10;49.10;;;;;;5042785;28;20899;-65
2023/04/11 01:31:42;;;;;;;0.77;0.60;;;8.90;59.90;;;;;;5058625;28;20223;-64
2023/04/11 01:34:11;;;;;;;1.87;0.90;;;8.70;66.20;;;;;;5033692;28;20200;-65
2023/04/11 01:36:38;;;;;;;1.33;0.80;;;8.60;77.50;;;;;;5051655;28;20234;-65
2023/04/11 01:39:05;;;;;;;3.30;0.60;;;8.70;80.80;;;;;;5058863;28;20204;-65
2023/04/11 01:41:34;;;;;;;0.70;0.60;;;8.80;80.40;;;;;;5062351;28;20339;-65
2023/04/11 01:44:01;;;;;;;0.70;0.70;;;8.50;76.80;;;;;;5055339;28;21673;-65
2023/04/11 01:46:28;;;;;;;1.13;0.57;;;8.60;77.00;;;;;;5051359;28;20766;-65
2023/04/11 01:48:56;;;;;;;4.53;0.80;;;8.60;74.80;;;;;;5064943;28;20197;-65
2023/04/11 01:51:23;;;;;;;1.17;0.80;;;8.60;73.30;;;;;;5024616;28;20441;-65
2023/04/11 01:53:49;;;;;;;2.53;1.00;;;8.60;75.00;;;;;;5052251;28;20200;-65
2023/04/11 01:56:16;;;;;;;4.43;0.70;;;8.70;74.40;;;;;;5056153;28;20709;-65
2023/04/11 01:58:44;;;;;;;4.20;0.88;;;8.60;74.40;;;;;;5064218;28;20200;-65
2023/04/11 02:01:12;;;;;;;2.13;0.90;;;8.70;78.20;;;;;;5041216;28;20219;-66
2023/04/11 02:03:39;;;;;;;0.63;0.63;;;8.80;76.80;;;;;;5064520;28;20192;-65
2023/04/11 02:06:06;;;;;;;0.70;0.70;;;8.70;79.30;;;;;;5042352;28;20207;-66
2023/04/11 02:08:33;;;;;;;3.35;1.13;;;8.70;83.30;;;;;;5044914;28;20211;-65
2023/04/11 02:11:00;;;;;;;1.48;0.65;;;8.70;81.60;;;;;;5060733;28;20227;-65
2023/04/11 02:13:27;;;;;;;3.08;0.80;;;8.70;82.00;;;;;;5059084;28;20328;-65
2023/04/11 02:15:55;;;;;;;2.85;1.00;;;8.70;84.10;;;;;;5048834;28;20193;-65
2023/04/11 02:18:22;;;;;;;2.42;1.33;;;8.80;80.70;;;;;;5060189;28;20499;-65
2023/04/11 02:20:49;;;;;;;1.67;1.00;;;8.70;82.10;;;;;;5064675;28;20192;-66
2023/04/11 02:23:15;;;;;;;3.70;1.10;;;8.80;84.10;;;;;;5023101;28;20196;-65
2023/04/11 02:25:42;;;;;;;2.08;0.85;;;8.70;80.80;;;;;;5062981;28;20197;-65
2023/04/11 02:28:09;;;;;;;1.00;0.75;;;8.60;83.20;;;;;;5060666;28;20214;-65
2023/04/11 02:30:36;;;;;;;1.70;0.93;;;8.70;81.70;;;;;;5061062;28;20196;-65
2023/04/11 02:33:04;;;;;;;2.25;1.17;;;8.70;82.80;;;;;;5049385;28;20196;-65
2023/04/11 02:35:31;;;;;;;1.63;0.87;;;8.70;78.60;;;;;;5059203;28;20289;-65
2023/04/11 02:37:59;;;;;;;1.45;0.95;;;8.70;74.50;;;;;;5055267;28;20223;-65
2023/04/11 02:40:26;;;;;;;1.38;0.98;;;8.60;70.80;;;;;;5031489;28;21590;-65
2023/04/11 02:42:53;;;;;;;1.30;1.02;;;8.60;69.30;;;;;;5062708;28;20191;-65
2023/04/11 02:45:19;;;;;;;2.03;1.67;;;8.60;70.30;;;;;;5060090;28;20731;-65
2023/04/11 02:47:46;;;;;;;4.17;2.30;;;8.60;71.10;;;;;;5046894;28;20583;-65
2023/04/11 02:50:14;;;;;;;2.72;2.13;;;8.60;70.70;;;;;;5058845;28;20196;-65
2023/04/11 02:52:43;;;;;;;4.47;1.43;;;8.60;73.00;;;;;;5059892;28;20234;-65
2023/04/11 02:55:10;;;;;;;7.83;1.23;;;8.60;75.50;;;;;;5020864;28;20211;-65
2023/04/11 02:57:38;;;;;;;5.43;1.30;;;8.50;73.20;;;;;;5058681;28;20257;-65
2023/04/11 03:00:06;;;;;;;2.05;1.15;;;8.50;72.30;;;;;;5063322;28;20204;-65
2023/04/11 03:02:33;;;;;;;1.60;1.10;;;8.60;70.00;;;;;;5043012;28;20668;-65
2023/04/11 03:05:02;;;;;;;1.52;1.00;;;8.50;67.20;;;;;;5060628;28;20193;-65
2023/04/11 03:07:31;;;;;;;4.37;1.20;;;8.50;66.80;;;;;;5058516;28;20366;-65
2023/04/11 03:09:57;;;;;;;3.03;0.90;;;8.50;61.80;;;;;;5016429;28;20204;-65
2023/04/11 03:12:25;;;;;;;1.80;1.08;;;8.40;57.10;;;;;;5068651;28;20220;-65
2023/04/11 03:14:52;;;;;;;3.80;1.10;;;8.30;57.20;;;;;;5067093;28;20223;-65
2023/04/11 03:17:19;;;;;;;3.03;1.05;;;8.20;59.80;;;;;;5064568;28;20591;-65
2023/04/11 03:19:45;;;;;;;3.23;1.20;;;8.10;59.00;;;;;;5050564;28;20226;-65
2023/04/11 03:22:12;;;;;;;3.20;1.17;;;8.10;59.70;;;;;;5065250;28;20207;-65
2023/04/11 03:24:40;;;;;;;1.10;1.00;;;8.10;57.80;;;;;;5033886;28;20204;-65
2023/04/11 03:27:07;;;;;;;1.57;1.10;;;8.00;57.00;;;;;;5055139;28;20200;-65
2023/04/11 03:29:34;;;;;;;2.53;1.63;;;8.00;56.80;;;;;;5065268;28;20188;-66
2023/04/11 03:32:01;;;;;;;3.03;1.30;;;8.00;54.40;;;;;;5065452;28;20227;-65
2023/04/11 03:34:27;;;;;;;1.93;1.43;;;7.90;57.60;;;;;;5048595;28;20204;-65
2023/04/11 03:36:54;;;;;;;3.70;1.40;;;8.00;56.40;;;;;;5064835;28;20229;-65
2023/04/11 03:39:21;;;;;;;2.50;1.27;;;7.80;54.10;;;;;;5053587;28;20508;-65
2023/04/11 03:41:50;;;;;;;1.73;1.20;;;7.90;54.80;;;;;;5033723;28;20689;-65
2023/04/11 03:44:16;;;;;;;1.50;1.03;;;7.90;55.60;;;;;;5065457;28;20894;-65
2023/04/11 03:46:43;;;;;;;5.87;1.57;;;7.90;54.10;;;;;;5059720;28;20226;-65
2023/04/11 03:49:10;;;;;;;2.60;1.37;;;7.80;57.70;;;;;;5049572;28;20203;-65
2023/04/11 03:51:37;;;;;;;4.33;1.60;;;7.90;61.50;;;;;;5058663;28;20518;-65
2023/04/11 03:54:04;;;;;;;5.90;1.47;;;7.80;60.90;;;;;;5062767;28;20199;-65
2023/04/11 03:56:30;;;;;;;4.93;1.67;;;7.90;64.30;;;;;;5021238;28;20408;-65
2023/04/11 03:58:58;;;;;;;4.43;1.50;;;7.90;66.50;;;;;;5066825;28;20589;-65
2023/04/11 04:01:25;;;;;;;4.60;1.90;;;8.00;68.30;;;;;;5060697;28;20200;-65
2023/04/11 04:03:52;;;;;;;4.10;1.40;;;7.90;70.90;;;;;;5063752;28;20299;-65
2023/04/11 04:06:20;;;;;;;3.00;1.17;;;7.90;73.90;;;;;;5051325;28;20221;-65
2023/04/11 04:08:47;;;;;;;4.00;1.43;;;8.00;76.60;;;;;;5063881;28;20206;-65
2023/04/11 04:11:13;;;;;;;3.87;1.97;;;8.00;74.70;;;;;;5036638;28;20215;-65
2023/04/11 04:13:40;;;;;;;4.23;1.23;;;8.10;70.50;;;;;;5050618;28;20196;-65
2023/04/11 04:16:09;;;;;;;4.00;1.17;;;8.10;71.70;;;;;;5062721;28;20590;-65
2023/04/11 04:18:36;;;;;;;5.43;1.40;;;8.10;73.90;;;;;;5059908;28;20600;-65
2023/04/11 04:21:03;;;;;;;2.97;1.40;;;8.10;72.40;;;;;;5049958;28;20215;-65
2023/04/11 04:23:31;;;;;;;7.37;1.40;;;8.10;75.20;;;;;;5056838;28;20196;-65
2023/04/11 04:26:00;;;;;;;1.77;1.00;;;8.10;75.20;;;;;;5036029;28;20233;-65
2023/04/11 04:28:27;;;;;;;4.60;1.33;;;8.10;77.90;;;;;;5053461;28;20208;-65
2023/04/11 04:30:56;;;;;;;7.50;1.67;;;8.10;76.90;;;;;;5063402;28;20232;-65
2023/04/11 04:33:25;;;;;;;5.33;1.80;;;8.10;80.30;;;;;;5064968;28;20370;-65
2023/04/11 04:35:56;;;;;;;4.73;1.50;;;8.10;80.30;;;;;;5060951;28;20751;-65
2023/04/11 04:38:27;;;;;;;4.50;1.50;;;8.10;84.60;;;;;;5052188;28;20217;-65
2023/04/11 04:40:54;;;;;;;3.87;1.40;;;8.10;85.10;;;;;;5038323;28;20750;-65
2023/04/11 04:43:22;;;;;;;5.00;1.10;;;8.10;84.90;;;;;;5060894;28;20200;-65
2023/04/11 04:45:49;;;;;;;2.60;1.30;;;8.10;87.70;;;;;;5058238;28;20346;-65
2023/04/11 04:48:17;;;;;;;5.07;1.63;;;8.10;89.30;;;;;;5066989;28;20199;-65
2023/04/11 04:50:46;;;;;;;7.17;2.00;;;8.10;89.10;;;;;;5061576;28;20283;-65
2023/04/11 04:53:13;;;;;;;2.77;1.20;;;8.10;90.50;;;;;;5049046;28;20236;-65
2023/04/11 04:55:39;;;;;;;2.30;1.10;;;8.00;87.70;;;;;;5029484;28;21156;-65
2023/04/11 04:58:06;;;;;;;1.40;1.03;;;8.10;90.40;;;;;;5062307;28;20283;-65
2023/04/11 05:00:33;;;;;;;4.00;1.40;;;8.10;88.10;;;;;;5046989;28;20204;-66
2023/04/11 05:03:04;;;;;;;5.90;1.80;;;8.00;87.70;;;;;;5067211;28;20567;-65
2023/04/11 05:05:31;;;;;;;2.23;1.13;;;8.00;90.20;;;;;;5063725;28;20204;-65
2023/04/11 05:07:59;;;;;;;2.47;0.90;;;8.00;90.20;;;;;;5044942;28;20783;-65
2023/04/11 05:10:26;;;;;;;1.97;1.00;;;8.10;90.30;;;;;;5061546;28;20207;-65
2023/04/11 05:12:54;;;;;;;5.77;1.37;;;8.10;90.50;;;;;;5032266;28;20224;-65
2023/04/11 05:15:22;;;;;;;5.20;1.43;;;8.00;91.00;;;;;;5049889;28;20407;-65
2023/04/11 05:17:49;;;;;;;5.13;1.37;;;8.10;90.70;;;;;;5059192;28;20288;-65
2023/04/11 05:20:15;;;;;;;2.93;1.17;;;8.00;91.50;;;;;;5065402;28;20196;-65
2023/04/11 05:22:43;;;;;;;2.83;1.30;;;8.10;91.20;;;;;;5058448;28;20203;-65
2023/04/11 05:25:11;;;;;;;2.30;1.57;;;8.00;92.20;;;;;;5046940;28;20200;-65
2023/04/11 05:27:38;;;;;;;3.00;1.50;;;8.00;92.10;;;;;;5029472;28;20884;-65
2023/04/11 05:30:06;;;;;;;1.77;1.00;;;8.00;93.20;;;;;;5049814;28;20558;-65
2023/04/11 05:32:33;;;;;;;2.27;1.00;;;8.10;93.10;;;;;;5053951;28;20305;-66
2023/04/11 05:35:00;;;;;;;1.80;0.90;;;8.10;92.60;;;;;;5060744;28;20338;-65
2023/04/11 05:37:26;;;;;;;1.03;0.93;;;8.00;93.90;;;;;;5061609;28;20269;-66
2023/04/11 05:39:55;;;;;;;1.97;1.10;;;7.90;95.70;;;;;;5047823;28;20314;-66
2023/04/11 05:42:23;;;;;;;1.67;0.87;;;7.90;97.40;;;;;;5047365;28;20832;-66
2023/04/11 05:44:50;;;;;;;1.40;1.07;;;7.90;98.50;;;;;;5036179;28;20200;-66
2023/04/11 05:47:16;;;;;;;0.97;0.87;;;7.80;99.20;;;;;;5057095;28;20200;-66
2023/04/11 05:49:43;;;;;;;2.47;1.00;;;7.80;98.40;;;;;;5059627;28;20397;-66
2023/04/11 05:52:10;;;;;;;1.70;1.00;;;7.70;97.80;;;;;;5059257;28;20216;-66
2023/04/11 05:54:37;;;;;;;1.33;0.80;;;7.70;98.70;;;;;;5032569;28;20200;-66
2023/04/11 05:57:06;;;;;;;2.10;1.00;;;7.80;99.40;;;;;;5063852;28;20201;-66
2023/04/11 05:59:35;;;;;;;2.73;1.30;;;7.80;99.90;;;;;;5024329;28;20207;-66
2023/04/11 06:02:02;;;;;;;4.40;1.20;;;7.80;99.90;;;;;;5044156;28;20204;-66
2023/04/11 06:04:29;;;;;;;3.40;1.50;;;7.90;99.90;;;;;;5058936;28;20593;-66
2023/04/11 06:06:56;;;;;;;2.47;0.97;;;7.90;99.90;;;;;;5029861;28;21568;-66
2023/04/11 06:09:23;;;;;;;4.47;1.50;;;8.00;99.90;;;;;;5058951;28;20611;-66
2023/04/11 06:11:50;;;;;;;1.37;1.03;;;8.00;99.90;;;;;;5047453;28;20400;-66
2023/04/11 06:14:16;;;;;;;1.73;1.00;;;8.10;99.50;;;;;;5040955;28;20681;-66
2023/04/11 06:16:45;;;;;;;2.93;1.20;;;8.10;98.00;;;;;;5024626;28;21447;-66
2023/04/11 06:19:11;;;;;;;1.67;0.90;;;8.20;98.00;;;;;;5058254;28;20192;-66
2023/04/11 06:21:38;;;;;;;1.57;1.20;;;8.10;96.70;;;;;;5054714;28;20189;-66
2023/04/11 06:24:09;;;;;;;2.60;1.17;;;8.20;97.40;;;;;;5062208;28;20211;-66
2023/04/11 06:26:36;;;;;;;1.77;1.00;;;8.20;97.90;;;;;;5044189;28;20211;-66
2023/04/11 06:29:04;;;;;;;2.90;1.30;;;8.30;98.30;;;;;;5050841;28;20566;-66
2023/04/11 06:31:31;;;;;;;2.00;1.37;;;8.30;97.80;;;;;;5031555;28;20948;-66
2023/04/11 06:34:00;;;;;;;1.10;1.00;;;8.30;97.40;;;;;;5050798;28;20226;-66
2023/04/11 06:36:26;;;;;;;3.90;1.27;;;8.30;96.90;;;;;;5054897;28;21591;-66
2023/04/11 06:38:53;;;;;;;3.20;1.60;;;8.40;97.30;;;;;;5055564;28;20195;-66
2023/04/11 06:41:20;;;;;;;8.27;2.00;;;8.40;97.40;;;;;;5050308;28;20203;-66
2023/04/11 06:43:47;;;;;;;5.10;1.87;;;8.40;97.40;;;;;;5037466;28;20212;-66
2023/04/11 06:46:14;;;;;;;4.23;1.90;;;8.40;97.90;;;;;;5032161;28;20217;-65
2023/04/11 06:48:41;;;;;;;7.03;1.97;;;8.40;97.80;;;;;;5045501;28;20220;-66
2023/04/11 06:51:09;;;;;;;4.50;1.70;;;8.40;97.30;;;;;;5058633;28;20322;-66
2023/04/11 06:53:36;;;;;;;4.70;1.67;;;8.50;96.90;;;;;;5048903;28;20370;-66
2023/04/11 06:56:03;;;;;;;4.07;1.90;;;8.50;96.80;;;;;;5056989;28;20211;-66
2023/04/11 06:58:30;;;;;;;5.23;1.90;;;8.50;97.00;;;;;;5037326;28;20227;-66
2023/04/11 07:00:57;;;;;;;4.37;2.00;;;8.60;97.40;;;;;;5005203;28;20220;-66
2023/04/11 07:03:25;;;;;;;8.30;2.50;;;8.70;98.30;;;;;;5037077;28;20215;-66
2023/04/11 07:05:51;;;;;;;5.43;2.10;;;8.70;97.60;;;;;;5056918;28;20203;-66
2023/04/11 07:08:20;;;;;;;4.80;2.10;;;8.80;98.50;;;;;;5036121;28;20227;-66
2023/04/11 07:10:46;;;;;;;3.83;2.23;;;8.80;96.90;;;;;;5050524;28;20192;-66
2023/04/11 07:13:13;;;;;;;8.70;2.13;;;8.90;96.40;;;;;;5059040;28;20227;-66
2023/04/11 07:15:40;;;;;;;5.97;2.30;;;9.00;96.00;;;;;;5008943;28;20849;-66
2023/04/11 07:18:07;;;;;;;6.87;2.47;;;9.10;95.30;;;;;;5063986;28;20626;-66
2023/04/11 07:20:34;;;;;;;5.10;2.37;;;9.20;93.90;;;;;;5049592;28;20200;-66
2023/04/11 07:23:02;;;;;;;6.60;2.80;;;9.20;94.40;;;;;;5051636;28;21133;-66
2023/04/11 07:25:33;;;;;;;7.87;3.00;;;9.30;93.50;;;;;;5055330;28;20200;-66
2023/04/11 07:28:00;;;;;;;14.52;2.92;;;9.30;92.00;;;;;;5067566;28;20196;-66
2023/04/11 07:30:27;;;;;;;8.33;2.50;;;9.20;90.00;;;;;;5046975;28;20216;-66
2023/04/11 07:32:54;;;;;;;3.50;2.13;;;9.30;90.60;;;;;;5031562;28;20243;-66
2023/04/11 07:35:21;;;;;;;5.43;2.70;;;9.30;90.00;;;;;;5050194;28;20204;-66
2023/04/11 07:37:48;;;;;;;8.67;2.10;;;9.30;87.50;;;;;;5048989;28;21145;-66
2023/04/11 07:40:16;;;;;;;4.60;1.55;;;9.30;87.30;;;;;;5063417;28;20203;-66
2023/04/11 07:42:45;;;;;;;5.77;2.00;;;9.10;62.00;;;;;;5059500;28;20377;-66
2023/04/11 07:45:12;;;;;;;3.03;1.20;;;9.00;75.00;;;;;;5063360;28;20204;-67
2023/04/11 07:47:38;;;;;;;3.93;1.40;;;8.90;74.80;;;;;;5008746;28;20500;-66
2023/04/11 07:50:06;;;;;;;3.60;0.90;;;8.80;75.60;;;;;;5046447;28;20669;-66
2023/04/11 07:52:33;;;;;;;2.53;1.23;;;8.70;78.80;;;;;;5042676;28;20277;-66
2023/04/11 07:55:00;;;;;;;3.17;1.00;;;8.50;78.10;;;;;;5062517;28;20189;-66
2023/04/11 07:57:27;;;;;;;1.67;0.90;;;8.50;78.60;;;;;;5062080;28;20667;-66
2023/04/11 07:59:55;;;;;;;1.03;0.73;;;8.40;79.40;;;;;;5058970;28;20692;-66
2023/04/11 08:02:22;;;;;;;1.70;0.83;;;8.40;80.00;;;;;;5040761;28;20600;-66
2023/04/11 08:04:49;;;;;;;2.03;0.80;;;8.40;77.60;;;;;;5019735;28;20614;-66
2023/04/11 08:07:16;;;;;;;0.73;0.73;;;8.40;76.00;;;;;;5058950;28;20201;-66
2023/04/11 08:09:43;;;;;;;1.30;1.10;;;8.30;81.60;;;;;;5025395;28;21001;-66
2023/04/11 08:12:10;;;;;;;2.13;0.90;;;8.20;89.80;;;;;;5052680;28;20196;-66
2023/04/11 08:14:37;;;;;;;1.20;1.00;;;8.20;93.80;;;;;;5056983;28;20992;-66
2023/04/11 08:17:06;;;;;;;2.13;0.80;;;8.00;94.20;;;;;;5048904;28;20216;-66
2023/04/11 08:19:32;;;;;;;1.83;0.70;;;7.80;94.60;;;;;;5029703;28;20219;-66
2023/04/11 08:21:59;;;;;;;0.90;0.67;;;7.70;94.10;;;;;;5057281;28;20200;-66
2023/04/11 08:24:26;;;;;;;2.87;1.10;;;7.60;96.20;;;;;;5053223;28;20215;-66
2023/04/11 08:26:53;;;;;;;2.17;0.83;;;7.50;96.80;;;;;;5062456;28;20192;-66
2023/04/11 08:29:19;;;;;;;2.47;1.40;;;7.40;98.80;;;;;;5063541;28;20199;-66
2023/04/11 08:31:46;;;;;;;1.10;0.80;;;7.50;99.90;;;;;;5038552;28;20962;-66
2023/04/11 08:34:15;;;;;;;1.90;0.77;;;7.50;99.90;;;;;;5049349;28;20857;-66
2023/04/11 08:36:42;;;;;;;4.17;0.90;;;7.60;99.90;;;;;;5019091;28;20655;-66
2023/04/11 08:39:09;;;;;;;4.07;0.87;;;7.70;99.90;;;;;;5027501;28;20224;-66
2023/04/11 08:41:37;;;;;;;4.17;1.00;;;7.80;99.90;;;;;;5053972;28;20200;-66
2023/04/11 08:44:04;;;;;;;6.37;1.30;;;7.90;99.90;;;;;;5058946;28;20567;-67
2023/04/11 08:46:32;;;;;;;1.30;1.10;;;7.90;99.30;;;;;;5046379;28;20529;-67
2023/04/11 08:49:00;;;;;;;1.10;1.00;;;8.00;99.90;;;;;;5020535;28;20223;-67
2023/04/11 08:51:28;;;;;;;2.77;1.30;;;8.00;99.90;;;;;;5011264;28;20294;-67
2023/04/11 08:53:58;;;;;;;1.27;1.10;;;8.10;99.90;;;;;;5041337;28;20876;-67
2023/04/11 08:56:25;;;;;;;3.23;1.80;;;8.10;99.90;;;;;;5059151;28;20198;-67
2023/04/11 08:58:52;;;;;;;4.37;1.30;;;8.10;99.90;;;;;;5064068;28;20393;-66
2023/04/11 09:01:27;;;;;;;2.53;1.27;;;8.20;99.90;;;;;;5062669;28;20673;-66
2023/04/11 09:03:54;;;;;;;3.57;1.30;;;8.20;99.90;;;;;;5045202;28;20207;-66
2023/04/11 09:06:21;;;;;;;3.00;1.70;;;8.20;99.90;;;;;;5033950;28;20215;-67
2023/04/11 09:08:49;;;;;;;5.63;1.77;;;8.30;99.90;;;;;;5057773;28;20309;-66
2023/04/11 09:11:17;;;;;;;3.60;1.23;;;8.20;99.90;;;;;;5052975;28;20270;-67
2023/04/11 09:13:44;;;;;;;2.90;1.70;;;8.30;99.90;;;;;;5057297;28;20262;-67
2023/04/11 09:16:12;;;;;;;3.33;1.30;;;8.30;99.90;;;;;;5065158;28;20657;-66
2023/04/11 09:18:40;;;;;;;3.67;1.73;;;8.30;99.90;;;;;;5056043;28;20284;-66
2023/04/11 09:21:09;;;;;;;4.40;1.47;;;8.40;99.90;;;;;;5051904;28;20200;-67
2023/04/11 09:23:36;;;;;;;2.23;1.20;;;8.40;99.90;;;;;;5021909;28;20292;-67
2023/04/11 09:26:05;;;;;;;3.73;1.40;;;8.40;99.90;;;;;;5045465;28;20212;-67
2023/04/11 09:28:41;;;;;;;4.37;1.60;;;8.40;99.90;;;;;;5053038;28;20192;-66
2023/04/11 09:31:09;;;;;;;3.27;1.30;;;8.50;99.90;;;;;;5049412;28;20243;-66
2023/04/11 09:33:35;;;;;;;4.93;1.80;;;8.50;99.90;;;;;;5060152;28;20309;-67
2023/04/11 09:36:18;;;;;;;4.80;1.80;;;8.60;99.90;;;;;;5052935;28;20224;-66
2023/04/11 09:38:45;;;;;;;4.33;2.07;;;8.50;99.90;;;;;;5031031;28;20284;-67
2023/04/11 09:41:13;;;;;;;1.70;1.40;;;8.60;99.90;;;;;;5040313;28;20227;-67
2023/04/11 09:43:50;;;;;;;6.73;1.80;;;8.60;99.90;;;;;;5037300;28;20231;-66
2023/04/11 09:46:19;;;;;;;3.47;1.67;;;8.70;99.90;;;;;;5048505;28;20202;-67
2023/04/11 09:48:46;;;;;;;4.03;2.00;;;8.80;99.90;;;;;;5033701;28;20212;-67
2023/04/11 09:51:14;;;;;;;4.17;1.77;;;9.20;99.90;;;;;;5032778;28;20216;-67
2023/04/11 09:53:41;;;;;;;6.87;2.20;;;9.40;99.90;;;;;;5033797;28;20235;-67
2023/04/11 09:56:09;;;;;;;6.30;2.13;;;9.30;94.90;;;;;;5042105;28;20207;-66
2023/04/11 09:58:38;;;;;;;5.10;2.13;;;9.40;96.70;;;;;;5053329;28;20223;-66
2023/04/11 10:01:07;;;;;;;3.73;2.13;;;9.40;84.00;;;;;;5049099;28;20215;-66
2023/04/11 10:03:35;;;;;;;5.60;2.23;;;9.50;94.00;;;;;;5044437;28;20826;-66
2023/04/11 10:06:04;;;;;;;4.50;2.50;;;9.60;95.40;;;;;;5038572;28;20230;-67
2023/04/11 10:08:33;;;;;;;7.73;2.23;;;10.40;84.70;;;;;;5012937;28;20710;-67
2023/04/11 10:11:01;;;;;;;3.30;2.40;;;9.70;84.60;;;;;;5021530;28;20254;-67
2023/04/11 10:13:42;;;;;;;5.55;2.35;;;9.70;86.50;;;;;;5035927;28;20582;-67
2023/04/11 10:16:12;;;;;;;5.83;1.80;;;9.60;78.10;;;;;;5036221;28;20212;-67
2023/04/11 10:19:06;;;;;;;5.60;2.13;;;9.30;55.70;;;;;;5046363;28;20199;-67
2023/04/11 10:21:41;;;;;;;6.20;1.90;;;9.20;57.80;;;;;;5053289;28;20362;-66
2023/04/11 10:24:09;;;;;;;8.60;2.20;;;9.00;50.20;;;;;;5033680;28;20613;-66
2023/04/11 10:26:58;;;;;;;8.57;1.97;;;8.90;49.00;;;;;;5037066;28;20321;-66
2023/04/11 10:29:48;;;;;;;4.13;1.47;;;9.00;57.80;;;;;;5039305;28;20215;-66
2023/04/11 10:32:20;;;;;;;3.90;1.90;;;9.00;58.60;;;;;;5042542;28;20199;-66
2023/04/11 10:35:25;;;;;;;2.20;1.33;;;9.00;50.90;;;;;;5063381;28;20227;-66
2023/04/11 10:37:52;;;;;;;7.73;1.50;;;9.10;26.60;;;;;;5057169;28;20227;-66
2023/04/11 10:40:20;;;;;;;2.53;1.20;;;9.40;21.90;;;;;;5018354;28;20204;-66
2023/04/11 10:42:48;;;;;;;2.93;1.57;;;9.10;21.70;;;;;;5026881;28;20567;-66
2023/04/11 10:45:18;;;;;;;3.10;1.47;;;9.20;28.40;;;;;;5053321;28;20215;-66
2023/04/11 10:48:00;;;;;;;4.10;1.70;;;9.40;26.80;;;;;;5046199;28;20191;-66
2023/04/11 10:50:36;;;;;;;7.43;1.70;;;9.50;15.90;;;;;;5056202;28;20212;-66
2023/04/11 10:53:06;;;;;;;6.93;1.80;;;9.60;2.00;;;;;;5063841;28;20224;-66
2023/04/11 10:55:43;;;;;;;4.37;1.63;;;9.60;12.70;;;;;;5020830;28;20433;-66
2023/04/11 10:58:12;;;;;;;3.23;1.77;;;9.70;1.00;;;;;;5017188;28;20705;-66
2023/04/11 11:01:13;;;;;;;7.65;2.65;;;9.80;21.40;;;;;;5048932;28;20358;-66
2023/04/11 11:03:40;;;;;;;8.53;2.13;;;9.90;13.30;;;;;;5034894;28;20711;-66
2023/04/11 11:06:08;;;;;;;4.87;2.03;;;10.10;1.00;;;;;;5052767;28;20200;-66
2023/04/11 11:08:36;;;;;;;5.72;1.90;;;10.30;1.00;;;;;;5052140;28;20218;-66
2023/04/11 11:11:05;;;;;;;5.87;1.47;;;10.30;1.00;;;;;;5039648;28;20238;-66
2023/04/11 11:13:42;;;;;;;4.87;1.50;;;9.80;1.00;;;;;;5014805;28;20352;-66
2023/04/11 11:16:10;;;;;;;6.27;1.60;;;9.60;1.00;;;;;;5049958;28;20203;-66
2023/04/11 11:18:39;;;;;;;2.50;1.30;;;9.20;1.00;;;;;;5028098;28;21293;-66
2023/04/11 11:21:06;;;;;;;5.27;1.50;;;8.90;1.00;;;;;;5053822;28;20219;-66
2023/04/11 11:23:33;;;;;;;4.83;2.03;;;8.90;28.20;;;;;;5048052;28;20208;-66
2023/04/11 11:26:00;;;;;;;5.67;1.70;;;9.00;40.90;;;;;;5024190;28;20220;-66
2023/04/11 11:28:27;;;;;;;5.97;1.50;;;9.00;26.40;;;;;;5015134;28;20273;-66
2023/04/11 11:30:55;;;;;;;4.20;1.60;;;9.00;20.40;;;;;;5042458;28;20200;-66
2023/04/11 11:33:23;;;;;;;6.97;1.80;;;9.00;9.10;;;;;;5052133;28;20202;-66
2023/04/11 11:35:53;;;;;;;7.47;1.83;;;9.00;7.90;;;;;;5051573;28;20258;-66
2023/04/11 11:38:20;;;;;;;2.47;1.23;;;9.00;18.00;;;;;;5049951;28;20593;-66
2023/04/11 11:40:48;;;;;;;7.60;1.80;;;9.00;2.00;;;;;;5040840;27;20711;-66
2023/04/11 11:43:15;;;;;;;3.57;1.90;;;9.00;2.90;;;;;;5043523;28;20203;-66
2023/04/11 11:45:41;;;;;;;6.50;1.53;;;9.10;5.60;;;;;;5035252;28;20792;-66
2023/04/11 11:48:18;;;;;;;2.43;1.30;;;9.20;1.00;;;;;;5048756;28;20203;-66
2023/04/11 11:50:45;;;;;;;4.77;1.50;;;9.30;9.80;;;;;;5048008;28;20196;-66
2023/04/11 11:53:15;;;;;;;9.27;1.57;;;9.30;1.00;;;;;;5061927;28;20196;-66
2023/04/11 11:55:43;;;;;;;4.17;2.20;;;9.40;8.70;;;;;;5036185;28;20251;-66
2023/04/11 11:58:09;;;;;;;3.77;1.40;;;9.40;1.00;;;;;;5021537;28;20329;-66
2023/04/11 12:00:39;;;;;;;2.33;0.93;;;9.50;1.00;;;;;;5018895;28;20351;-66
2023/04/11 12:03:08;;;;;;;3.33;1.23;;;9.50;1.00;;;;;;5035630;28;20197;-66
2023/04/11 12:05:35;;;;;;;3.67;1.90;;;9.60;1.00;;;;;;5030054;28;22871;-66
2023/04/11 12:08:04;;;;;;;4.40;1.53;;;9.90;1.00;;;;;;5039631;28;20231;-66
2023/04/11 12:10:41;;;;;;;8.68;1.83;;;10.00;1.00;;;;;;5030065;28;20215;-66
2023/04/11 12:13:13;;;;;;;5.22;1.27;;;9.90;1.00;;;;;;5038397;28;20687;-66
2023/04/11 12:15:41;;;;;;;5.10;1.73;;;9.90;1.00;;;;;;4995264;28;20700;-66
2023/04/11 12:18:08;;;;;;;4.20;1.08;;;9.90;1.00;;;;;;5043758;28;20649;-66
2023/04/11 12:20:35;;;;;;;1.65;1.00;;;10.00;1.00;;;;;;5013500;28;21637;-66
2023/04/11 12:23:02;;;;;;;1.77;1.05;;;10.00;1.00;;;;;;5041323;28;20313;-66
2023/04/11 12:25:29;;;;;;;6.47;1.20;;;10.10;1.00;;;;;;5049007;28;20229;-66
2023/04/11 12:27:57;;;;;;;4.73;0.93;;;10.20;1.00;;;;;;5026636;28;20849;-66
2023/04/11 12:30:24;;;;;;;3.08;0.90;;;10.30;1.00;;;;;;5023665;28;20626;-66
2023/04/11 12:32:51;;;;;;;2.70;0.93;;;10.20;1.00;;;;;;5047130;28;20239;-66
2023/04/11 12:35:18;;;;;;;2.45;0.90;;;10.10;1.00;;;;;;5049519;28;20235;-66
2023/04/11 12:37:45;;;;;;;4.63;1.40;;;10.10;1.00;;;;;;5037705;28;21500;-66
2023/04/11 12:40:12;;;;;;;3.80;1.17;;;10.10;1.00;;;;;;5061537;28;20354;-65
2023/04/11 12:42:39;;;;;;;1.65;1.20;;;10.00;1.00;;;;;;5057463;28;20255;-65
2023/04/11 12:45:09;;;;;;;3.57;1.57;;;10.00;1.00;;;;;;5014816;28;20856;-66
2023/04/11 12:47:37;;;;;;;4.90;1.40;;;9.90;1.00;;;;;;5042809;28;20207;-66
2023/04/11 12:50:05;;;;;;;3.92;1.30;;;9.90;1.00;;;;;;5048584;28;20423;-65
2023/04/11 12:52:32;;;;;;;8.35;1.63;;;9.80;1.00;;;;;;5042854;28;20211;-66
2023/04/11 12:54:58;;;;;;;1.80;1.15;;;9.80;1.00;;;;;;5035919;28;20251;-65
2023/04/11 12:57:25;;;;;;;3.27;1.47;;;9.90;1.00;;;;;;5055269;28;20708;-65
2023/04/11 12:59:52;;;;;;;4.03;1.00;;;10.00;1.00;;;;;;5039492;28;20526;-65
2023/04/11 13:02:21;;;;;;;1.83;1.08;;;10.20;1.00;;;;;;5022851;28;20228;-65